Marco Polo — C6JZ7 — position and weather

sailwx.info

Track history (hours):
 
Tides and Currents Weather Stations Pressure Air Temp Water Temp Dewpoint Dewpoint Depression Visibility Wind Speed Wind Dir Waves Ship Positions

Marco Polo

Operator: Orient Lines

Last reported at 2015-Mar-30 00:33 UTC. Time now 2015-Mar-30 02:23 UTC.
Position N 50°33' E 000°29'.

Type: Ship. MMSI: 308691456.

Date/timePositionNaut miles runAvg speedWind from/ knotsBaromVisibWave heightAir tempDewpointWater temp
2015-Mar-30 00:33N 50°33' E 000°29'1515.4
2015-Mar-29 23:33N 50°41' E 000°50'3214.8
2015-Mar-29 21:22N 51°03' E 001°28'1113.8
2015-Mar-29 20:33N 51°10' E 001°41'1414.3
2015-Mar-29 19:33N 51°21' E 001°56'1313.0
2015-Mar-29 18:33N 51°21' E 002°17'1514.9
2015-Mar-29 17:33N 51°23' E 002°40'1814.8
2015-Mar-29 16:20N 51°23' E 003°09'3 0.3
2015-Mar-29 05:13N 51°21' E 003°12'1010.0
2015-Mar-29 04:16N 51°23' E 002°57'912.0
2015-Mar-29 03:33N 51°23' E 002°43'9 9.5
2015-Mar-29 02:33N 51°28' E 002°56'1212.1
2015-Mar-29 01:32N 51°36' E 003°11'6312.5
2015-Mar-28 20:28N 52°31' E 004°02'1313.9
2015-Mar-28 19:33N 52°30' E 004°22'9 8.9
2015-Mar-28 18:33N 52°28' E 004°36'1 1.4
2015-Mar-28 17:33N 52°28' E 004°39'7 7.3
2015-Mar-28 16:33N 52°25' E 004°50'4 3.8
2015-Mar-28 15:31N 52°23' E 004°55'0 0.0
2015-Mar-28 14:33N 52°23' E 004°55'0 0.0
2015-Mar-28 13:33N 52°23' E 004°55'0 0.0
2015-Mar-28 12:32N 52°23' E 004°55'0 0.0
2015-Mar-28 11:32N 52°23' E 004°55'0 0.0
2015-Mar-28 10:31N 52°23' E 004°55'0 0.0
2015-Mar-28 09:31N 52°23' E 004°55'0 0.0
2015-Mar-28 08:31N 52°23' E 004°55'1 0.9
2015-Mar-28 07:33N 52°23' E 004°54'8 7.9
2015-Mar-28 06:34N 52°27' E 004°42'5 4.9
2015-Mar-28 05:33N 52°28' E 004°34'4 4.3
2015-Mar-28 04:33N 52°28' E 004°27'8 8.4
2015-Mar-28 03:33N 52°29' E 004°14'1111.4
2015-Mar-28 02:33N 52°27' E 003°55'7114.0
2015-Mar-27 21:29N 51°55' E 002°12'1516.0
2015-Mar-27 20:33N 51°49' E 001°50'1111.4
2015-Mar-27 19:33N 51°46' E 001°32'1817.7
2015-Mar-27 18:33N 51°34' E 001°11'1615.9
2015-Mar-27 17:32N 51°29' E 000°46'1212.3
2015-Mar-27 16:33N 51°28' E 000°27'3 3.2
2015-Mar-27 15:33N 51°27' E 000°22'0 0.0
2015-Mar-27 14:33N 51°27' E 000°22'0 0.0
2015-Mar-27 13:33N 51°27' E 000°22'0 0.0
2015-Mar-27 12:34N 51°27' E 000°22'0 0.0
2015-Mar-27 11:34N 51°27' E 000°22'0 0.0
2015-Mar-27 10:34N 51°27' E 000°22'0 0.0
2015-Mar-27 09:32N 51°27' E 000°22'0 0.0
2015-Mar-27 08:33N 51°27' E 000°22'1 0.6
2015-Mar-27 07:33N 51°27' E 000°23'6 5.9
2015-Mar-27 06:33N 51°30' E 000°31'1111.1
2015-Mar-27 05:33N 51°29' E 000°49'1312.9
2015-Mar-27 04:33N 51°33' E 001°08'1515.3
2015-Mar-27 03:33N 51°42' E 001°27'1313.3
2015-Mar-27 02:34N 51°52' E 001°42'1312.6
2015-Mar-27 01:33N 52°04' E 001°49'2713.6
2015-Mar-26 23:33N 52°30' E 002°04'2812.9
2015-Mar-26 21:21N 52°58' E 001°54'1215.2
2015-Mar-26 20:33N 53°03' E 001°37'6014.8
2015-Mar-26 16:31N 53°51' E 000°36'1414.8
2015-Mar-26 15:33N 54°02' E 000°22'1514.7
2015-Mar-26 14:32N 54°17' E 000°12'1414.8
2015-Mar-26 13:33N 54°30' E 000°05'1514.8
2015-Mar-26 12:32N 54°45' W 000°03'18215.1
2015-Mar-26 00:28N 57°38' W 001°41'1213.6
2015-Mar-25 23:33N 57°46' W 001°60'61 2.9
2015-Mar-25 02:33N 58°39' W 002°58'1918.2
2015-Mar-25 01:30N 58°49' W 003°29'1717.9
2015-Mar-25 00:33N 59°01' W 003°53'  
Track history (hours):
 
Tides and Currents Weather Stations Pressure Air Temp Water Temp Dewpoint Dewpoint Depression Visibility Wind Speed Wind Dir Waves Ship Positions

Marco Polo

Operator: Orient Lines

Last reported at 2015-Mar-30 00:33 UTC. Time now 2015-Mar-30 02:23 UTC.
Position N 50°33' E 000°29'.

Type: Ship. MMSI: 308691456.

Date/timePositionNaut miles runAvg speedWind from/ knotsBaromVisibWave heightAir tempDewpointWater temp
2015-Mar-30 00:33N 50°33' E 000°29'1515.4
2015-Mar-29 23:33N 50°41' E 000°50'3214.8
2015-Mar-29 21:22N 51°03' E 001°28'1113.8
2015-Mar-29 20:33N 51°10' E 001°41'1414.3
2015-Mar-29 19:33N 51°21' E 001°56'1313.0
2015-Mar-29 18:33N 51°21' E 002°17'1514.9
2015-Mar-29 17:33N 51°23' E 002°40'1814.8
2015-Mar-29 16:20N 51°23' E 003°09'3 0.3
2015-Mar-29 05:13N 51°21' E 003°12'1010.0
2015-Mar-29 04:16N 51°23' E 002°57'912.0
2015-Mar-29 03:33N 51°23' E 002°43'9 9.5
2015-Mar-29 02:33N 51°28' E 002°56'1212.1
2015-Mar-29 01:32N 51°36' E 003°11'6312.5
2015-Mar-28 20:28N 52°31' E 004°02'1313.9
2015-Mar-28 19:33N 52°30' E 004°22'9 8.9
2015-Mar-28 18:33N 52°28' E 004°36'1 1.4
2015-Mar-28 17:33N 52°28' E 004°39'7 7.3
2015-Mar-28 16:33N 52°25' E 004°50'4 3.8
2015-Mar-28 15:31N 52°23' E 004°55'0 0.0
2015-Mar-28 14:33N 52°23' E 004°55'0 0.0
2015-Mar-28 13:33N 52°23' E 004°55'0 0.0
2015-Mar-28 12:32N 52°23' E 004°55'0 0.0
2015-Mar-28 11:32N 52°23' E 004°55'0 0.0
2015-Mar-28 10:31N 52°23' E 004°55'0 0.0
2015-Mar-28 09:31N 52°23' E 004°55'0 0.0
2015-Mar-28 08:31N 52°23' E 004°55'1 0.9
2015-Mar-28 07:33N 52°23' E 004°54'8 7.9
2015-Mar-28 06:34N 52°27' E 004°42'5 4.9
2015-Mar-28 05:33N 52°28' E 004°34'4 4.3
2015-Mar-28 04:33N 52°28' E 004°27'8 8.4
2015-Mar-28 03:33N 52°29' E 004°14'1111.4
2015-Mar-28 02:33N 52°27' E 003°55'7114.0
2015-Mar-27 21:29N 51°55' E 002°12'1516.0
2015-Mar-27 20:33N 51°49' E 001°50'1111.4
2015-Mar-27 19:33N 51°46' E 001°32'1817.7
2015-Mar-27 18:33N 51°34' E 001°11'1615.9
2015-Mar-27 17:32N 51°29' E 000°46'1212.3
2015-Mar-27 16:33N 51°28' E 000°27'3 3.2
2015-Mar-27 15:33N 51°27' E 000°22'0 0.0
2015-Mar-27 14:33N 51°27' E 000°22'0 0.0
2015-Mar-27 13:33N 51°27' E 000°22'0 0.0
2015-Mar-27 12:34N 51°27' E 000°22'0 0.0
2015-Mar-27 11:34N 51°27' E 000°22'0 0.0
2015-Mar-27 10:34N 51°27' E 000°22'0 0.0
2015-Mar-27 09:32N 51°27' E 000°22'0 0.0
2015-Mar-27 08:33N 51°27' E 000°22'1 0.6
2015-Mar-27 07:33N 51°27' E 000°23'6 5.9
2015-Mar-27 06:33N 51°30' E 000°31'1111.1
2015-Mar-27 05:33N 51°29' E 000°49'1312.9
2015-Mar-27 04:33N 51°33' E 001°08'1515.3
2015-Mar-27 03:33N 51°42' E 001°27'1313.3
2015-Mar-27 02:34N 51°52' E 001°42'1312.6
2015-Mar-27 01:33N 52°04' E 001°49'2713.6
2015-Mar-26 23:33N 52°30' E 002°04'2812.9
2015-Mar-26 21:21N 52°58' E 001°54'1215.2
2015-Mar-26 20:33N 53°03' E 001°37'6014.8
2015-Mar-26 16:31N 53°51' E 000°36'1414.8
2015-Mar-26 15:33N 54°02' E 000°22'1514.7
2015-Mar-26 14:32N 54°17' E 000°12'1414.8
2015-Mar-26 13:33N 54°30' E 000°05'1514.8
2015-Mar-26 12:32N 54°45' W 000°03'18215.1
2015-Mar-26 00:28N 57°38' W 001°41'1213.6
2015-Mar-25 23:33N 57°46' W 001°60'61 2.9
2015-Mar-25 02:33N 58°39' W 002°58'1918.2
2015-Mar-25 01:30N 58°49' W 003°29'1717.9
2015-Mar-25 00:33N 59°01' W 003°53'  

Dump ship's entire track history